Startpagina
METAR-TAF:

METAR-TAF

Vliegvelden :

Nörvenich, Duitsland

breedte: 50-50N, lengte: 006-40E, hoogte: 118 m

Actueel weer

Dit bericht is 31 minuten geleden gemaakt, om 05:20 UTC
Wind 4 kt uit het zuidoosten
Temperatuur -5°C
Vochtigheid 93%
Druk 1026 hPa
Zicht 10 km of meer

METAR: ETNN 070520Z 14004KT 9999 M05/M06 Q1026 BLU+

Tijdstip: 06:51 (05:51 UTC)

Verwachting

Dit bericht is 51 minuten geleden gemaakt, om 05:00 UTC
Verwachting geldig van 07 om 06 UTC tot 07 om 15 UTC
Wind 3 kt uit variabele richting
Zicht 10 km of meer
Weinig wolken op 30000 ft

TAF: ETNN 070500Z 0706/0715 VRB03KT 9999 NSW FEW300 BY ETGL

Waarnemingen en weersverwachtingen van meer dan 4000 vliegvelden (METAR en TAF).

De beschikbare stations zijn de gele en rode punten op de kaart.

Ga met uw muis naar het station om de naam te zien.

Klik dan om waarnemingen en weersverwachtingen te zien.

kaart wijzigen: klik op de groene knoppen met een zwart kruis om in te zoomen, op de groene knop met een streepje om uit te zoomen of op de groene pijlen voor aangrenzende kaarten.


METAR-TAF: